Terminal Aerodrome Forecast
Issued by NWS Wakefield, VA

Current Version | Previous Version | Text Only | Print | Product List | Glossary On
Versions: 1 2 3 4 5 6 7 8 9 10 11 12 13 14
000
FTUS41 KAKQ 041724
TAFORF
TAF
KORF 041724Z 0418/0518 07009KT P6SM SCT050 SCT250
     FM050500 05009KT P6SM BKN025
     FM050900 05010KT 4SM BR OVC015
     FM051400 05012G17KT P6SM BKN025=

USA.gov is the U.S. government's official web portal to all federal, state and local government web resources and services.